📊 Raw Sensor Data

Showing records 45626 to 45650 of 85,056 total

ID Distance (ft) Battery V Battery A Int Temp (°F) Int Humid (%) Ext Temp (°F) Solar V RSSI SNR Time Stamp
39443 15.6 3.99 -5 49 42 50 0.00 -76 8 05/02/2025 03:45 AM
39442 15.6 3.94 -5 49 42 50 0.00 -77 8 05/02/2025 03:30 AM
39441 15.6 3.94 -5 49 42 50 0.00 -75 8 05/02/2025 03:15 AM
39440 15.6 3.94 -5 49 42 50 0.00 -76 8 05/02/2025 03:00 AM
39439 15.6 4.00 -5 49 42 50 0.00 -76 9 05/02/2025 02:45 AM
39438 15.6 3.94 -5 49 42 50 0.00 -77 8 05/02/2025 02:30 AM
39437 15.6 4.00 -5 48 42 50 0.00 -72 8 05/02/2025 02:15 AM
39436 15.6 3.94 -5 49 42 50 0.00 -77 8 05/02/2025 02:00 AM
39435 15.6 3.94 -5 49 43 50 0.00 -79 8 05/02/2025 01:45 AM
39434 -- 3.94 -5 49 43 50 0.00 -74 8 05/02/2025 01:30 AM
39433 -- 3.94 -5 49 43 50 0.00 -78 8 05/02/2025 01:15 AM
39432 -- 4.00 -5 49 43 51 0.00 -76 8 05/02/2025 01:00 AM
39431 -- 3.95 -5 50 43 51 0.00 -75 8 05/02/2025 12:45 AM
39430 15.6 4.00 -5 50 44 51 0.00 -75 8 05/02/2025 12:30 AM
39429 -- 3.95 -5 51 43 51 0.10 -77 7 05/02/2025 12:15 AM
39428 15.6 4.01 -5 51 44 52 0.00 -77 8 05/02/2025 12:00 AM
39427 15.6 3.95 -5 52 44 53 0.10 -77 8 05/01/2025 11:45 PM
39426 15.6 4.01 -5 53 44 54 0.00 -74 8 05/01/2025 11:30 PM
39425 15.6 3.95 -5 53 44 54 0.10 -76 8 05/01/2025 11:15 PM
39424 -- 4.01 -5 53 44 54 0.00 -74 8 05/01/2025 11:00 PM
39423 -- 3.95 -5 53 45 54 0.00 -72 7 05/01/2025 10:45 PM
39422 -- 4.01 -5 54 45 55 0.00 -75 8 05/01/2025 10:30 PM
39421 -- 3.96 -5 55 45 55 0.00 -74 8 05/01/2025 10:15 PM
39420 15.6 3.96 -5 56 45 56 0.00 -76 8 05/01/2025 10:00 PM
39419 -- 4.01 -5 56 46 57 0.10 -74 8 05/01/2025 09:45 PM